Airfield :
LOGIN :

Register | Disclaimer

   EN    FR    IT 

 










Legend :    VFR   Marginal VFR   IFR   Intensive IFR   Very Intensive IFR
Visi :
Ceiling :
>= 8 km
>= 3000ft
5 to 8 km
1000 to 3000 ft
1500m to 5 km
500 to 1000 ft
800 to 1500m
200 to 500 ft
< 800m
< 200 ft
Symbols :   Thunderstorms  Fog  Heavy snow  Heavy precipitations  Wind > 20 kt
SIGMETs :     Misc.  Thunderstorms  Icing  Turbulence  Mountain Waves  Volcanic Ashes






- Airport Elevation : 614 ft
- IATA code : CRL


EBCI - Charleroi

CURRENT METAR :
  • 241850Z 17009KT 140V200 9999 -SN BKN009 01/M01 Q0996 TEMPO 3000 -SN BR

EXPIRED METARs :
  • 241820Z 15010KT 9999 -SN SCT009 BKN012 01/M01 Q0996 TEMPO 3000 -SN BR BKN008
  • 241750Z 15010KT 9999 -SN FEW010 SCT015 BKN020 01/M01 Q0997 TEMPO 3000 -SN BR BKN008
  • 241720Z 15009KT 120V180 9999 -SN FEW010 SCT015 BKN020 01/M01 Q0997 TEMPO 3000 -SN BR BKN008
  • 241650Z 16009KT 9999 -SN FEW010 BKN025 01/M01 Q0998 TEMPO 3000 -SN BR BKN015
  • 241620Z 17009KT 9999 SCT020 BKN025 01/M01 Q0998 R88/CLRD// TEMPO 3000 -SN BR BKN015

TAF TAF EBCI
Valid from the 24 at 18:00 until the 26 at 00:00 UTC


241710Z 2418/2524 16007KT 7000 SCT006 BKN011
TEMPO 2418/2509 2500 -SN BKN004
PROB40
TEMPO 2418/2422 0600 SN BKN002
BECMG 2510/2512 SCT010 SCT035



MET'MAP, your aeronautical weather chart ! - Copyright ORBIFLY December 2007 - Disclaimer

ORBIFLY MET'MAP TEAM :

Programming & Development : Alexandra Zaïnal
Concept & original design : Baudouin d'Aumeries
Assistance for programming : Marc-Olivier Méhu
Technical & hardware support : Manuel Goepfert

Contact : metmap@orbifly.com




SOURCES & CREDITS :

   NOAA